Time;durP1;ratioP1;P1;durP2;ratioP2;P2;SDS_P1;SDS_P2;PMS_P1;PMS_P2;Temp;Humidity;BMP_temperature;BMP_pressure;BME280_temperature;BME280_humidity;BME280_pressure;Samples;Min_cycle;Max_cycle;Signal;HPM_P1;HPM_P2
2021/05/09 00:00:42;;;;;;;1.60;1.10;;;16.40;93.30;;;;;;4974105;28;20570;-78
2021/05/09 00:03:07;;;;;;;1.70;1.00;;;16.30;93.40;;;;;;4975632;28;20603;-78
2021/05/09 00:05:33;;;;;;;3.13;1.20;;;16.30;93.50;;;;;;4974500;28;20717;-78
2021/05/09 00:07:59;;;;;;;1.63;0.97;;;16.30;93.30;;;;;;4975069;28;20172;-77
2021/05/09 00:10:25;;;;;;;2.10;1.07;;;16.30;93.80;;;;;;4974330;28;20188;-78
2021/05/09 00:12:51;;;;;;;1.60;0.90;;;16.30;93.80;;;;;;4975740;28;20984;-78
2021/05/09 00:15:23;;;;;;;1.58;0.98;;;16.20;93.90;;;;;;4980186;28;20604;-78
2021/05/09 00:17:49;;;;;;;1.77;1.13;;;16.20;94.40;;;;;;4957521;28;20184;-78
2021/05/09 00:20:15;;;;;;;2.00;1.03;;;16.10;93.80;;;;;;4973789;28;21201;-78
2021/05/09 00:22:41;;;;;;;2.28;1.23;;;16.10;93.70;;;;;;4974062;28;20603;-78
2021/05/09 00:25:08;;;;;;;2.07;0.90;;;16.10;93.70;;;;;;4975348;28;20199;-78
2021/05/09 00:27:34;;;;;;;1.50;1.13;;;16.10;93.80;;;;;;4974647;28;20166;-78
2021/05/09 00:30:00;;;;;;;3.10;1.10;;;16.00;93.90;;;;;;4975097;28;20490;-78
2021/05/09 00:32:26;;;;;;;2.85;1.00;;;16.00;94.10;;;;;;4975096;28;20167;-79
2021/05/09 00:34:52;;;;;;;1.47;1.00;;;16.00;94.00;;;;;;4957789;28;20187;-79
2021/05/09 00:37:18;;;;;;;3.10;1.23;;;16.00;94.50;;;;;;4974672;28;20175;-78
2021/05/09 00:39:44;;;;;;;3.60;1.20;;;15.90;94.60;;;;;;4973889;28;20631;-78
2021/05/09 00:42:10;;;;;;;1.88;1.35;;;15.90;95.10;;;;;;4973862;28;21177;-78
2021/05/09 00:44:36;;;;;;;1.70;1.20;;;15.90;95.00;;;;;;4973942;28;20259;-78
2021/05/09 00:47:07;;;;;;;3.95;1.13;;;15.80;95.10;;;;;;4974679;28;20567;-78
2021/05/09 00:49:33;;;;;;;2.38;1.42;;;15.80;95.60;;;;;;4975398;28;20206;-78
2021/05/09 00:51:59;;;;;;;2.10;1.25;;;15.80;95.30;;;;;;4982662;28;20164;-78
2021/05/09 00:54:27;;;;;;;1.88;1.00;;;15.80;95.40;;;;;;4974966;28;20267;-78
2021/05/09 00:56:55;;;;;;;1.70;0.90;;;15.80;95.40;;;;;;4973292;28;20171;-78
2021/05/09 00:59:22;;;;;;;1.90;1.00;;;15.70;95.70;;;;;;4973220;28;20291;-78
2021/05/09 01:01:49;;;;;;;1.60;1.15;;;15.70;95.70;;;;;;4957291;28;20172;-78
2021/05/09 01:04:16;;;;;;;1.40;0.80;;;15.70;95.90;;;;;;4973163;28;20234;-78
2021/05/09 01:06:43;;;;;;;1.65;1.23;;;15.70;95.70;;;;;;4973892;28;20171;-78
2021/05/09 01:09:09;;;;;;;2.10;1.10;;;15.60;96.30;;;;;;4973348;28;20726;-78
2021/05/09 01:11:36;;;;;;;1.80;1.00;;;15.60;96.10;;;;;;4977313;28;20186;-78
2021/05/09 01:14:03;;;;;;;2.17;1.50;;;15.60;96.10;;;;;;4982135;28;20572;-78
2021/05/09 01:16:29;;;;;;;2.15;1.48;;;15.50;96.60;;;;;;4937278;29;20180;-78
2021/05/09 01:18:55;;;;;;;1.88;1.42;;;15.50;96.10;;;;;;4937895;29;20180;-78
2021/05/09 01:21:21;;;;;;;2.05;1.20;;;15.40;97.00;;;;;;4954595;28;20243;-78
2021/05/09 01:23:47;;;;;;;2.10;1.10;;;15.40;96.90;;;;;;4937821;29;20247;-78
2021/05/09 01:26:13;;;;;;;1.70;1.05;;;15.30;96.70;;;;;;4921591;29;20577;-77
2021/05/09 01:28:39;;;;;;;3.70;1.10;;;15.30;97.30;;;;;;4941688;29;20256;-78
2021/05/09 01:31:06;;;;;;;2.05;1.48;;;15.30;97.10;;;;;;4937398;29;20630;-78
2021/05/09 01:33:32;;;;;;;1.73;1.10;;;15.30;96.90;;;;;;4954770;29;20169;-79
2021/05/09 01:35:59;;;;;;;2.78;1.30;;;15.20;97.50;;;;;;4937356;29;20181;-78
2021/05/09 01:38:25;;;;;;;1.70;1.30;;;15.20;97.20;;;;;;4905403;29;20596;-78
2021/05/09 01:40:50;;;;;;;2.30;1.10;;;15.10;97.60;;;;;;4954393;28;20635;-79
2021/05/09 01:43:16;;;;;;;1.80;1.10;;;15.10;97.80;;;;;;4937298;29;20567;-79
2021/05/09 01:45:42;;;;;;;2.60;1.83;;;15.10;97.80;;;;;;4921113;29;20572;-79
2021/05/09 01:48:08;;;;;;;1.70;1.10;;;15.10;98.30;;;;;;4936751;29;20521;-79
2021/05/09 01:50:34;;;;;;;1.60;0.90;;;15.00;98.40;;;;;;4953904;28;20294;-79
2021/05/09 01:53:01;;;;;;;1.80;1.48;;;15.00;98.20;;;;;;4982250;23;20697;-78
2021/05/09 01:55:28;;;;;;;2.42;1.30;;;15.00;98.40;;;;;;4976917;28;20194;-77
2021/05/09 01:58:07;;;;;;;2.08;1.25;;;15.00;98.60;;;;;;4975112;28;20168;-77
2021/05/09 02:00:44;;;;;;;1.85;1.10;;;15.00;98.80;;;;;;4975275;28;20213;-78
2021/05/09 02:03:18;;;;;;;3.25;1.15;;;15.00;98.80;;;;;;4975350;28;20183;-78
2021/05/09 02:05:45;;;;;;;2.75;1.20;;;14.90;98.70;;;;;;4959319;28;20490;-78
2021/05/09 02:08:10;;;;;;;3.00;1.37;;;14.90;98.80;;;;;;4974973;28;20178;-78
2021/05/09 02:10:43;;;;;;;1.95;1.25;;;14.90;99.60;;;;;;4975318;28;20182;-77
2021/05/09 02:13:09;;;;;;;2.70;1.30;;;14.90;99.80;;;;;;4975119;28;20194;-77
2021/05/09 02:15:42;;;;;;;2.03;1.00;;;14.80;99.90;;;;;;4992657;28;20166;-77
2021/05/09 02:18:08;;;;;;;3.13;1.60;;;14.90;99.70;;;;;;4974875;28;20179;-78
2021/05/09 02:20:39;;;;;;;2.17;1.30;;;14.80;99.90;;;;;;4975904;28;20616;-78
2021/05/09 02:23:05;;;;;;;2.57;1.47;;;14.80;99.90;;;;;;4992302;28;20665;-77
2021/05/09 02:25:31;;;;;;;1.60;1.00;;;14.80;99.90;;;;;;4975007;28;20234;-78
2021/05/09 02:28:00;;;;;;;2.13;1.13;;;14.80;99.90;;;;;;4974542;28;20575;-78
2021/05/09 02:30:26;;;;;;;1.87;1.33;;;14.80;99.90;;;;;;4974955;28;20508;-78
2021/05/09 02:32:53;;;;;;;1.83;1.20;;;14.80;99.90;;;;;;4959069;28;20193;-77
2021/05/09 02:35:19;;;;;;;1.90;1.13;;;14.80;99.90;;;;;;4992354;28;20246;-78
2021/05/09 02:37:45;;;;;;;3.25;1.40;;;14.80;99.90;;;;;;4958345;28;20179;-77
2021/05/09 02:40:12;;;;;;;2.28;1.00;;;14.70;99.90;;;;;;4974701;28;20687;-78
2021/05/09 02:42:37;;;;;;;2.13;1.10;;;14.70;99.90;;;;;;4992191;28;20555;-79
2021/05/09 02:45:05;;;;;;;1.80;1.15;;;14.70;99.90;;;;;;4974945;28;20226;-78
2021/05/09 02:47:32;;;;;;;3.45;1.58;;;14.70;99.90;;;;;;4958351;28;20174;-78
2021/05/09 02:50:07;;;;;;;1.60;1.10;;;14.70;99.90;;;;;;4974851;28;20229;-78
2021/05/09 02:52:34;;;;;;;2.45;0.98;;;14.70;99.90;;;;;;4958407;28;20260;-78
2021/05/09 02:55:01;;;;;;;2.38;1.70;;;14.70;99.90;;;;;;4992138;28;20167;-78
2021/05/09 02:57:26;;;;;;;2.35;1.00;;;14.70;99.90;;;;;;4974327;28;20179;-79
2021/05/09 02:59:52;;;;;;;1.63;1.10;;;14.70;99.90;;;;;;4958485;28;20229;-78
2021/05/09 03:02:18;;;;;;;1.58;1.10;;;14.70;99.90;;;;;;4992821;28;20281;-79
2021/05/09 03:04:44;;;;;;;2.23;1.00;;;14.70;99.90;;;;;;4978666;28;20641;-78
2021/05/09 03:07:11;;;;;;;1.85;1.20;;;14.70;99.90;;;;;;4978312;28;20567;-79
2021/05/09 03:09:39;;;;;;;1.50;1.13;;;14.70;99.90;;;;;;4995985;28;20216;-79
2021/05/09 03:12:06;;;;;;;1.67;1.08;;;14.60;99.90;;;;;;4995979;28;20237;-78
2021/05/09 03:14:32;;;;;;;2.22;1.30;;;14.60;99.90;;;;;;4995846;28;20163;-79
2021/05/09 03:16:58;;;;;;;1.50;1.17;;;14.60;99.90;;;;;;4995517;28;20187;-78
2021/05/09 03:19:23;;;;;;;1.70;1.20;;;14.60;99.90;;;;;;4961985;28;20163;-78
2021/05/09 03:21:49;;;;;;;1.43;1.00;;;14.60;99.90;;;;;;4995520;28;20183;-78
2021/05/09 03:24:15;;;;;;;2.03;1.30;;;14.60;99.90;;;;;;4995568;28;20965;-78
2021/05/09 03:26:41;;;;;;;1.90;1.23;;;14.60;99.90;;;;;;4977990;28;20198;-78
2021/05/09 03:29:07;;;;;;;2.20;1.23;;;14.50;99.90;;;;;;4995511;28;20525;-77
2021/05/09 03:31:33;;;;;;;1.40;1.00;;;14.50;99.90;;;;;;4978774;28;20226;-77
2021/05/09 03:33:59;;;;;;;1.63;1.10;;;14.50;99.90;;;;;;4995687;28;20177;-77
2021/05/09 03:36:25;;;;;;;5.90;1.70;;;14.50;99.90;;;;;;4977743;28;20611;-77
2021/05/09 03:38:51;;;;;;;1.70;1.40;;;14.50;99.90;;;;;;4961896;28;20570;-77
2021/05/09 03:41:17;;;;;;;3.83;2.00;;;14.50;99.90;;;;;;4977621;28;20199;-78
2021/05/09 03:43:43;;;;;;;3.03;1.23;;;14.50;99.90;;;;;;4995272;28;20618;-79
2021/05/09 03:46:09;;;;;;;1.60;0.90;;;14.50;99.90;;;;;;4995308;28;21125;-78
2021/05/09 03:48:35;;;;;;;1.52;1.00;;;14.50;99.90;;;;;;4961519;28;20171;-78
2021/05/09 03:51:01;;;;;;;1.50;1.00;;;14.40;99.90;;;;;;4961457;28;20171;-78
2021/05/09 03:53:30;;;;;;;1.40;1.10;;;14.40;99.90;;;;;;4977817;28;20647;-78
2021/05/09 03:55:57;;;;;;;2.83;1.30;;;14.50;99.90;;;;;;4961580;28;20183;-78
2021/05/09 03:58:23;;;;;;;2.42;1.33;;;14.40;99.90;;;;;;4977279;28;20171;-78
2021/05/09 04:00:49;;;;;;;1.97;1.33;;;14.40;99.90;;;;;;4977669;28;20663;-78
2021/05/09 04:03:26;;;;;;;1.97;1.23;;;14.40;99.90;;;;;;4994966;28;20613;-78
2021/05/09 04:05:53;;;;;;;3.08;1.30;;;14.30;99.90;;;;;;4994946;28;20175;-78
2021/05/09 04:08:20;;;;;;;2.60;1.40;;;14.40;99.90;;;;;;4945053;28;20167;-78
2021/05/09 04:10:47;;;;;;;2.20;1.48;;;14.40;99.90;;;;;;4995006;28;20519;-78
2021/05/09 04:13:13;;;;;;;2.10;1.05;;;14.40;99.90;;;;;;4945107;28;20201;-78
2021/05/09 04:15:42;;;;;;;1.90;1.35;;;14.40;99.90;;;;;;4994788;28;20174;-77
2021/05/09 04:18:08;;;;;;;1.77;1.15;;;14.40;99.90;;;;;;4994449;28;20202;-77
2021/05/09 04:20:34;;;;;;;1.67;1.10;;;14.40;99.90;;;;;;4977217;28;20210;-77
2021/05/09 04:23:07;;;;;;;1.93;0.90;;;14.40;99.90;;;;;;4994443;28;20191;-77
2021/05/09 04:25:33;;;;;;;2.08;1.17;;;14.40;99.90;;;;;;4977262;28;20585;-78
2021/05/09 04:27:59;;;;;;;1.60;1.00;;;14.40;99.90;;;;;;4994406;28;20644;-78
2021/05/09 04:30:25;;;;;;;1.60;0.93;;;14.50;99.90;;;;;;4994611;28;20581;-77
2021/05/09 04:33:05;;;;;;;1.40;1.00;;;14.50;99.90;;;;;;4961159;28;20621;-78
2021/05/09 04:35:32;;;;;;;1.55;1.05;;;14.60;99.90;;;;;;4994776;28;20504;-78
2021/05/09 04:37:58;;;;;;;1.67;1.00;;;14.60;99.90;;;;;;4976858;28;20301;-78
2021/05/09 04:40:24;;;;;;;2.13;1.40;;;14.60;99.90;;;;;;4994440;28;20294;-79
2021/05/09 04:42:51;;;;;;;1.73;0.93;;;14.60;99.90;;;;;;4976998;28;20191;-78
2021/05/09 04:45:29;;;;;;;1.85;1.23;;;14.60;99.90;;;;;;4979959;28;20163;-77
2021/05/09 04:47:55;;;;;;;2.35;1.67;;;14.70;99.90;;;;;;4945146;28;20744;-77
2021/05/09 04:50:21;;;;;;;1.50;1.00;;;14.70;99.90;;;;;;4960633;28;20202;-79
2021/05/09 04:52:47;;;;;;;1.57;1.00;;;14.70;99.90;;;;;;4960680;28;20741;-78
2021/05/09 04:55:13;;;;;;;3.47;1.17;;;14.70;99.90;;;;;;4976797;28;20175;-78
2021/05/09 04:57:38;;;;;;;1.30;1.00;;;14.70;99.90;;;;;;4976662;28;20608;-78
2021/05/09 05:00:06;;;;;;;1.60;0.90;;;14.70;99.90;;;;;;4994069;28;20671;-78
2021/05/09 05:02:31;;;;;;;2.28;0.95;;;14.80;99.90;;;;;;4978359;28;20183;-78
2021/05/09 05:04:57;;;;;;;3.40;1.20;;;14.80;99.90;;;;;;4996698;28;20531;-77
2021/05/09 05:07:23;;;;;;;1.57;1.00;;;14.90;99.90;;;;;;5003929;28;20594;-77
2021/05/09 05:09:49;;;;;;;1.57;1.00;;;14.90;99.90;;;;;;4994282;28;20578;-77
2021/05/09 05:12:15;;;;;;;2.37;1.10;;;15.00;99.90;;;;;;4992618;28;20625;-77
2021/05/09 05:14:44;;;;;;;1.55;0.95;;;15.00;99.90;;;;;;4990474;28;20616;-77
2021/05/09 05:17:10;;;;;;;1.90;1.30;;;15.00;99.90;;;;;;5005567;28;20167;-78
2021/05/09 05:19:35;;;;;;;1.50;1.10;;;15.10;99.90;;;;;;4990093;28;20167;-78
2021/05/09 05:22:02;;;;;;;1.50;1.00;;;15.20;99.90;;;;;;4984607;28;20701;-78
2021/05/09 05:24:28;;;;;;;1.30;0.85;;;15.20;99.90;;;;;;4977919;28;20175;-78
2021/05/09 05:26:54;;;;;;;1.80;0.90;;;15.30;99.90;;;;;;4993457;28;20167;-78
2021/05/09 05:29:21;;;;;;;1.45;1.00;;;15.40;99.90;;;;;;4987474;28;20172;-77
2021/05/09 05:31:50;;;;;;;1.63;1.00;;;15.60;99.90;;;;;;4968618;28;20184;-77
2021/05/09 05:41:50;;;;;;;1.73;0.90;;;16.30;99.90;;;;;;4918202;28;20352;-79
2021/05/09 05:44:16;;;;;;;2.00;1.47;;;17.20;99.90;;;;;;4958554;28;21165;-80
2021/05/09 05:46:42;;;;;;;1.40;0.90;;;17.80;99.90;;;;;;4973591;28;20579;-80
2021/05/09 05:49:07;;;;;;;1.70;0.80;;;18.60;99.90;;;;;;4973842;28;20200;-80
2021/05/09 05:51:33;;;;;;;1.63;0.87;;;19.40;99.90;;;;;;4956253;28;20282;-80
2021/05/09 05:53:59;;;;;;;1.50;0.70;;;20.10;99.90;;;;;;4973704;28;20246;-81
2021/05/09 05:56:26;;;;;;;1.67;0.80;;;20.80;99.90;;;;;;4973041;28;21220;-81
2021/05/09 05:58:52;;;;;;;2.10;0.80;;;21.60;99.30;;;;;;4956178;28;20171;-78
2021/05/09 06:01:18;;;;;;;1.57;0.70;;;22.20;99.10;;;;;;4973154;28;20653;-77
2021/05/09 06:03:44;;;;;;;1.50;0.87;;;22.70;95.20;;;;;;4973318;28;20626;-78
2021/05/09 06:06:10;;;;;;;1.50;0.70;;;23.10;94.20;;;;;;4973102;28;20970;-78
2021/05/09 06:08:37;;;;;;;1.67;0.87;;;23.40;91.50;;;;;;4973029;28;20579;-78
2021/05/09 06:11:03;;;;;;;1.40;0.90;;;23.70;91.90;;;;;;4955799;28;20188;-78
2021/05/09 06:13:29;;;;;;;1.60;1.00;;;23.40;85.30;;;;;;4973311;28;21182;-79
2021/05/09 06:15:55;;;;;;;1.80;0.80;;;23.20;84.30;;;;;;4973225;28;20686;-79
2021/05/09 06:18:20;;;;;;;1.30;0.70;;;23.00;83.10;;;;;;4972864;28;20202;-79
2021/05/09 06:20:47;;;;;;;1.40;1.00;;;23.00;84.80;;;;;;4972944;28;20207;-78
2021/05/09 06:23:12;;;;;;;2.00;0.80;;;23.20;84.80;;;;;;4955725;28;20191;-78
2021/05/09 06:25:38;;;;;;;1.17;0.60;;;23.60;86.10;;;;;;4955576;28;21137;-77
2021/05/09 06:28:04;;;;;;;2.17;0.90;;;23.80;84.70;;;;;;4972780;28;20309;-77
2021/05/09 06:30:33;;;;;;;1.50;0.80;;;24.20;84.30;;;;;;4981215;28;20694;-78
2021/05/09 06:32:59;;;;;;;1.50;0.70;;;24.50;80.60;;;;;;4983340;28;20819;-78
2021/05/09 06:35:24;;;;;;;1.20;0.63;;;24.90;82.00;;;;;;4992219;28;20182;-77
2021/05/09 06:37:52;;;;;;;1.20;0.70;;;25.30;79.70;;;;;;4974802;28;20179;-77
2021/05/09 06:40:19;;;;;;;1.30;0.70;;;25.60;75.40;;;;;;4930720;28;20651;-77
2021/05/09 06:42:58;;;;;;;1.93;0.80;;;25.60;74.40;;;;;;4951668;28;20646;-77
2021/05/09 06:45:27;;;;;;;1.60;0.70;;;25.70;68.50;;;;;;4980359;28;20594;-77
2021/05/09 06:47:53;;;;;;;1.57;0.70;;;25.90;71.30;;;;;;4973983;28;20993;-77
2021/05/09 06:50:19;;;;;;;1.63;0.60;;;26.40;73.50;;;;;;4991864;28;20696;-77
2021/05/09 06:52:45;;;;;;;1.50;0.90;;;26.50;69.80;;;;;;4991743;28;20704;-77
2021/05/09 06:55:12;;;;;;;1.30;0.53;;;26.60;68.30;;;;;;4958263;28;21239;-76
2021/05/09 06:57:39;;;;;;;1.50;0.70;;;26.80;68.90;;;;;;4991544;28;20921;-77
2021/05/09 07:00:07;;;;;;;1.90;0.77;;;27.00;67.70;;;;;;4972345;28;20625;-78
2021/05/09 07:02:33;;;;;;;1.30;0.70;;;27.40;68.80;;;;;;4972727;28;20669;-78
2021/05/09 07:04:58;;;;;;;2.40;0.80;;;27.90;66.00;;;;;;4972450;28;20974;-80
2021/05/09 07:07:24;;;;;;;1.20;0.70;;;28.20;63.10;;;;;;4954809;28;20202;-76
2021/05/09 07:09:50;;;;;;;1.63;0.80;;;28.10;61.60;;;;;;4972464;28;20504;-77
2021/05/09 07:12:16;;;;;;;1.20;0.63;;;28.20;62.20;;;;;;4955163;28;20191;-76
2021/05/09 07:14:42;;;;;;;1.60;0.70;;;28.40;62.20;;;;;;4939408;28;20628;-76
2021/05/09 07:17:11;;;;;;;3.87;0.73;;;28.70;62.20;;;;;;4955106;28;20186;-76
2021/05/09 07:19:38;;;;;;;2.23;0.90;;;29.00;62.90;;;;;;4955058;28;20931;-76
2021/05/09 07:22:09;;;;;;;1.50;0.70;;;29.40;60.70;;;;;;4971009;28;21147;-76
2021/05/09 07:24:34;;;;;;;1.83;0.90;;;29.60;59.30;;;;;;4955099;28;20570;-76
2021/05/09 07:27:00;;;;;;;1.43;0.60;;;29.70;57.10;;;;;;4972228;28;20579;-76
2021/05/09 07:29:26;;;;;;;2.40;0.90;;;29.90;57.70;;;;;;4955327;28;20175;-76
2021/05/09 07:31:52;;;;;;;1.53;0.77;;;30.10;56.80;;;;;;4972523;28;20946;-77
2021/05/09 07:34:17;;;;;;;1.37;0.70;;;30.00;55.10;;;;;;4939436;28;20233;-77
2021/05/09 07:36:47;;;;;;;2.60;0.80;;;30.00;56.20;;;;;;4955185;28;20175;-76
2021/05/09 07:39:13;;;;;;;1.30;0.70;;;29.80;54.70;;;;;;4955086;28;20182;-77
2021/05/09 07:41:39;;;;;;;1.40;0.70;;;29.60;54.70;;;;;;4972458;28;21186;-76
2021/05/09 07:44:06;;;;;;;1.83;0.80;;;29.40;54.70;;;;;;4972416;28;20172;-76
2021/05/09 07:46:32;;;;;;;2.17;0.73;;;29.50;55.70;;;;;;4972013;28;20231;-76
2021/05/09 07:48:57;;;;;;;1.30;0.67;;;29.50;53.90;;;;;;4956700;28;21119;-77
2021/05/09 07:51:23;;;;;;;1.40;0.70;;;29.30;54.80;;;;;;4942105;28;20214;-76
2021/05/09 07:53:49;;;;;;;1.57;0.87;;;29.20;53.50;;;;;;4988789;23;20310;-78
2021/05/09 07:56:15;;;;;;;1.47;0.80;;;29.10;53.50;;;;;;4988215;28;20232;-78
2021/05/09 07:58:40;;;;;;;1.70;0.70;;;28.90;53.40;;;;;;4971289;28;20221;-78
2021/05/09 08:01:06;;;;;;;1.70;0.80;;;28.90;54.30;;;;;;4983108;28;20168;-78
2021/05/09 08:03:32;;;;;;;1.97;0.80;;;29.00;53.80;;;;;;4978132;28;20187;-77
2021/05/09 08:05:58;;;;;;;1.60;0.70;;;28.80;54.20;;;;;;4995007;28;20171;-78
2021/05/09 08:08:27;;;;;;;1.50;0.70;;;28.30;53.30;;;;;;4977397;28;20175;-77
2021/05/09 08:10:53;;;;;;;2.60;0.83;;;28.10;54.30;;;;;;4995001;28;20639;-78
2021/05/09 08:13:19;;;;;;;1.43;0.70;;;28.00;54.80;;;;;;4994935;28;20652;-79
2021/05/09 08:15:45;;;;;;;1.40;0.80;;;27.90;54.90;;;;;;4961134;28;20226;-78
2021/05/09 08:18:10;;;;;;;1.40;0.80;;;27.90;55.40;;;;;;4977080;28;20956;-78
2021/05/09 08:20:36;;;;;;;1.30;0.60;;;27.90;55.70;;;;;;4994904;28;20624;-78
2021/05/09 08:23:04;;;;;;;3.20;0.97;;;27.80;55.80;;;;;;4976958;28;20195;-78
2021/05/09 08:25:30;;;;;;;1.97;0.73;;;27.90;56.70;;;;;;4994648;28;20601;-78
2021/05/09 08:27:55;;;;;;;2.83;0.73;;;28.30;57.50;;;;;;4994056;28;21272;-78
2021/05/09 08:30:23;;;;;;;1.40;0.60;;;28.80;57.20;;;;;;4977100;28;20268;-78
2021/05/09 08:32:49;;;;;;;1.13;0.60;;;29.30;57.40;;;;;;4977295;28;20555;-78
2021/05/09 08:35:15;;;;;;;1.77;0.60;;;29.90;57.70;;;;;;4977193;28;20621;-79
2021/05/09 08:37:42;;;;;;;2.17;1.10;;;30.50;57.30;;;;;;4997490;28;20652;-79
2021/05/09 08:40:13;;;;;;;1.70;1.00;;;30.90;54.40;;;;;;4999909;28;20171;-80
2021/05/09 08:42:39;;;;;;;1.43;0.70;;;30.70;52.20;;;;;;4977891;28;21068;-80
2021/05/09 08:45:05;;;;;;;2.27;0.67;;;30.80;53.00;;;;;;4970880;28;20589;-79
2021/05/09 08:47:42;;;;;;;2.20;0.77;;;31.00;53.10;;;;;;4969386;28;20599;-80
2021/05/09 08:50:17;;;;;;;2.57;0.90;;;31.20;52.00;;;;;;4972008;28;20665;-80
2021/05/09 08:52:45;;;;;;;1.63;0.90;;;31.00;50.20;;;;;;4965427;28;21268;-80
2021/05/09 08:55:13;;;;;;;1.60;0.90;;;31.10;50.90;;;;;;4963377;28;20579;-80
2021/05/09 08:57:41;;;;;;;1.90;0.97;;;30.90;50.70;;;;;;4983723;28;20606;-80
2021/05/09 09:00:12;;;;;;;1.67;0.93;;;30.80;50.50;;;;;;4984267;28;20658;-80
2021/05/09 09:02:41;;;;;;;2.33;1.07;;;30.30;49.30;;;;;;4980438;28;20627;-79
2021/05/09 09:05:09;;;;;;;1.87;0.70;;;30.00;50.10;;;;;;4947519;28;20587;-79
2021/05/09 09:07:48;;;;;;;2.20;0.90;;;29.70;50.10;;;;;;4981641;28;20575;-80
2021/05/09 09:10:50;;;;;;;1.40;0.83;;;29.60;50.70;;;;;;4984479;28;20634;-80
2021/05/09 09:13:31;;;;;;;1.30;0.70;;;29.30;50.80;;;;;;4979878;28;20721;-79
2021/05/09 09:15:57;;;;;;;2.10;1.30;;;29.40;51.30;;;;;;4971765;28;20610;-80
2021/05/09 09:18:24;;;;;;;1.70;0.70;;;29.40;51.90;;;;;;4984389;28;20586;-80
2021/05/09 09:20:50;;;;;;;1.30;0.70;;;29.70;52.40;;;;;;4968674;28;20576;-80
2021/05/09 09:23:15;;;;;;;1.37;0.80;;;30.10;52.70;;;;;;4969471;28;20697;-80
2021/05/09 09:25:42;;;;;;;1.60;0.83;;;30.60;52.50;;;;;;4987607;28;20202;-80
2021/05/09 09:28:07;;;;;;;1.73;0.90;;;30.90;51.80;;;;;;4969368;28;20190;-80
2021/05/09 09:30:52;;;;;;;2.70;0.80;;;30.80;50.50;;;;;;4986610;28;21093;-80
2021/05/09 09:33:18;;;;;;;1.70;0.70;;;31.00;51.30;;;;;;4967579;28;20206;-80
2021/05/09 09:35:46;;;;;;;1.47;0.90;;;31.10;50.90;;;;;;4982696;28;20587;-80
2021/05/09 09:38:29;;;;;;;2.13;0.70;;;31.30;50.60;;;;;;4983895;28;20567;-80
2021/05/09 09:41:08;;;;;;;1.80;0.80;;;31.40;50.40;;;;;;4984755;28;20576;-80
2021/05/09 09:43:34;;;;;;;1.80;0.80;;;31.70;50.30;;;;;;4986222;28;20619;-80
2021/05/09 09:46:00;;;;;;;1.70;0.97;;;32.00;50.90;;;;;;4968151;28;20600;-81
2021/05/09 09:48:40;;;;;;;1.90;1.20;;;32.30;49.80;;;;;;4965692;28;20584;-80
2021/05/09 09:51:07;;;;;;;2.60;0.80;;;32.60;49.30;;;;;;4982579;28;20638;-80
2021/05/09 09:53:44;;;;;;;1.60;0.80;;;32.80;49.50;;;;;;4987153;28;20620;-80
2021/05/09 09:56:13;;;;;;;2.10;0.80;;;33.00;48.80;;;;;;4983928;28;20579;-80
2021/05/09 09:58:45;;;;;;;1.40;0.70;;;32.90;47.70;;;;;;4965839;28;20593;-80
2021/05/09 10:01:13;;;;;;;2.53;0.87;;;32.60;47.40;;;;;;4984825;28;20584;-81
2021/05/09 10:03:39;;;;;;;2.07;0.90;;;32.30;47.60;;;;;;4968090;28;20682;-80
2021/05/09 10:06:05;;;;;;;1.30;0.77;;;32.10;47.70;;;;;;4982438;28;21020;-80
2021/05/09 10:08:33;;;;;;;1.50;0.90;;;31.80;47.90;;;;;;4965328;28;20622;-80
2021/05/09 10:11:01;;;;;;;1.67;1.00;;;31.50;48.00;;;;;;4980814;28;20642;-80
2021/05/09 10:13:28;;;;;;;1.40;0.97;;;31.40;48.20;;;;;;4980984;28;20594;-80
2021/05/09 10:15:54;;;;;;;1.90;0.97;;;31.10;48.20;;;;;;4980871;28;20571;-80
2021/05/09 10:18:21;;;;;;;2.37;0.90;;;30.90;48.50;;;;;;4983412;28;20571;-81
2021/05/09 10:20:47;;;;;;;1.73;1.10;;;30.80;48.80;;;;;;4981564;28;21192;-80
2021/05/09 10:23:14;;;;;;;3.53;0.83;;;30.70;48.90;;;;;;4981221;28;20717;-80
2021/05/09 10:25:46;;;;;;;2.07;0.80;;;30.90;49.50;;;;;;4965066;28;20597;-80
2021/05/09 10:28:13;;;;;;;2.80;1.20;;;31.10;49.20;;;;;;4980059;28;20934;-80
2021/05/09 10:30:56;;;;;;;3.73;0.87;;;31.40;49.40;;;;;;4982502;28;20733;-80
2021/05/09 10:33:41;;;;;;;2.30;1.10;;;31.60;48.90;;;;;;4976944;28;20634;-81
2021/05/09 10:36:27;;;;;;;2.90;1.10;;;31.60;48.90;;;;;;4977576;28;20634;-80
2021/05/09 10:39:11;;;;;;;2.90;0.93;;;31.70;48.60;;;;;;4976872;28;20705;-79
2021/05/09 10:41:58;;;;;;;1.67;0.97;;;31.60;48.30;;;;;;4978141;28;20598;-80
2021/05/09 10:44:45;;;;;;;2.47;0.80;;;31.30;48.20;;;;;;4979008;28;20571;-80
2021/05/09 10:47:39;;;;;;;2.60;1.20;;;31.10;48.60;;;;;;4981341;28;20666;-81
2021/05/09 10:50:14;;;;;;;1.90;1.13;;;31.00;48.70;;;;;;4966826;28;20623;-80
2021/05/09 10:52:44;;;;;;;3.87;1.60;;;30.70;49.20;;;;;;4982152;28;20646;-80
2021/05/09 10:55:49;;;;;;;3.37;1.90;;;30.50;49.20;;;;;;4982403;28;20568;-81
2021/05/09 10:58:17;;;;;;;2.63;1.10;;;30.10;49.60;;;;;;4902126;29;20598;-81
2021/05/09 11:01:11;;;;;;;1.83;1.17;;;29.90;50.00;;;;;;4887230;29;20602;-80
2021/05/09 11:03:38;;;;;;;3.40;1.83;;;29.60;50.40;;;;;;4930359;28;20705;-81
2021/05/09 11:06:07;;;;;;;2.70;1.77;;;29.50;50.90;;;;;;4983055;28;20598;-80
2021/05/09 11:08:48;;;;;;;2.27;1.17;;;29.40;51.10;;;;;;4983958;28;20583;-80
2021/05/09 11:11:18;;;;;;;1.70;1.00;;;29.20;51.60;;;;;;4982636;28;21126;-80
2021/05/09 11:13:59;;;;;;;1.70;0.90;;;29.30;51.50;;;;;;4982701;28;20606;-80
2021/05/09 11:16:27;;;;;;;2.80;1.07;;;29.30;51.70;;;;;;4949144;28;20590;-80
2021/05/09 11:18:57;;;;;;;2.80;0.90;;;29.30;51.60;;;;;;4983022;28;20575;-80
2021/05/09 11:21:24;;;;;;;5.00;1.10;;;29.20;51.80;;;;;;4983186;28;20581;-80
2021/05/09 11:23:53;;;;;;;1.60;0.93;;;29.30;52.00;;;;;;4978848;28;20614;-81
2021/05/09 11:26:49;;;;;;;1.80;1.27;;;29.30;52.00;;;;;;4979774;28;20590;-82
2021/05/09 11:29:22;;;;;;;2.67;1.00;;;29.20;52.30;;;;;;5004709;28;20600;-81
2021/05/09 11:31:51;;;;;;;1.70;0.83;;;29.30;52.50;;;;;;5005728;28;20635;-80
2021/05/09 11:34:19;;;;;;;1.87;1.40;;;29.50;53.00;;;;;;5005363;28;20574;-80
2021/05/09 11:36:47;;;;;;;2.60;0.90;;;29.80;53.40;;;;;;5005198;28;20582;-80
2021/05/09 11:39:14;;;;;;;2.17;1.00;;;30.00;52.50;;;;;;4968512;28;20660;-80
2021/05/09 11:41:58;;;;;;;1.53;0.80;;;30.20;52.50;;;;;;4999649;28;20586;-80
2021/05/09 11:44:26;;;;;;;6.50;1.17;;;30.30;52.00;;;;;;4989415;28;20582;-80
2021/05/09 11:46:52;;;;;;;1.67;1.07;;;30.70;52.30;;;;;;4985252;28;20586;-81
2021/05/09 11:49:21;;;;;;;1.87;1.00;;;30.90;52.00;;;;;;4986264;28;20578;-81
2021/05/09 11:51:47;;;;;;;2.07;1.00;;;31.20;52.10;;;;;;5002620;28;20625;-80
2021/05/09 11:54:13;;;;;;;3.50;0.93;;;31.40;51.10;;;;;;5007357;28;20612;-80
2021/05/09 11:56:51;;;;;;;1.90;0.90;;;31.70;50.10;;;;;;4989871;28;20715;-82
2021/05/09 11:59:48;;;;;;;1.70;1.00;;;31.80;48.90;;;;;;5004527;28;20562;-80
2021/05/09 12:02:20;;;;;;;1.30;0.80;;;31.90;48.10;;;;;;5001867;28;20599;-81
2021/05/09 12:04:55;;;;;;;1.40;0.80;;;32.00;48.90;;;;;;4984458;28;20589;-81
2021/05/09 12:07:26;;;;;;;1.80;0.80;;;32.20;49.10;;;;;;4983797;28;20694;-81
2021/05/09 12:09:56;;;;;;;2.17;0.80;;;32.50;49.10;;;;;;4953426;28;20581;-81
2021/05/09 12:12:23;;;;;;;2.00;0.70;;;32.70;48.80;;;;;;5003141;28;20708;-81
2021/05/09 12:14:54;;;;;;;1.40;0.63;;;33.00;48.90;;;;;;4984913;28;20582;-81
2021/05/09 12:17:27;;;;;;;1.20;0.60;;;33.30;47.60;;;;;;5001493;28;20575;-81
2021/05/09 12:19:55;;;;;;;2.40;0.70;;;33.40;47.20;;;;;;5005852;28;20674;-80
2021/05/09 12:22:22;;;;;;;1.70;0.63;;;33.60;47.20;;;;;;5003261;28;20620;-80
2021/05/09 12:24:57;;;;;;;2.00;0.70;;;33.70;46.70;;;;;;5000373;28;20671;-81
2021/05/09 12:27:26;;;;;;;2.53;0.60;;;33.80;46.20;;;;;;4998620;28;20715;-78
2021/05/09 12:29:54;;;;;;;2.23;0.80;;;33.90;45.80;;;;;;4963719;28;20584;-79
2021/05/09 12:32:25;;;;;;;2.33;0.70;;;33.90;45.80;;;;;;4995988;28;20618;-79
2021/05/09 12:35:06;;;;;;;1.70;0.90;;;34.00;45.60;;;;;;4994715;28;20673;-79
2021/05/09 12:37:53;;;;;;;1.50;0.60;;;33.90;44.70;;;;;;5002486;28;20789;-79
2021/05/09 12:40:22;;;;;;;1.50;0.77;;;33.90;44.40;;;;;;5016858;28;20637;-79
2021/05/09 12:42:58;;;;;;;1.30;0.80;;;33.80;44.70;;;;;;4999910;28;20613;-78
2021/05/09 12:45:42;;;;;;;3.17;0.87;;;33.70;44.50;;;;;;5018607;28;20643;-79
2021/05/09 12:48:11;;;;;;;1.73;0.70;;;33.50;44.00;;;;;;5019861;28;20553;-79
2021/05/09 12:50:47;;;;;;;1.47;0.70;;;33.30;43.60;;;;;;5019081;28;20595;-79
2021/05/09 12:53:15;;;;;;;1.47;0.70;;;33.00;43.40;;;;;;5017821;28;20613;-78
2021/05/09 12:55:41;;;;;;;1.40;0.70;;;32.80;43.60;;;;;;5001317;28;20566;-79
2021/05/09 12:58:13;;;;;;;1.90;0.80;;;32.50;43.50;;;;;;5017134;28;20582;-79
2021/05/09 13:00:39;;;;;;;1.63;0.80;;;32.20;43.40;;;;;;4975427;28;20200;-78
2021/05/09 13:03:05;;;;;;;1.73;0.90;;;32.00;43.70;;;;;;5007164;28;20594;-80